sensor_id;sensor_type;location;lat;lon;timestamp;temperature;humidity
15930;DHT22;8064;51.142;4.780;2022-07-23T00:00:54;17.60;99.90
15930;DHT22;8064;51.142;4.780;2022-07-23T00:03:20;17.50;99.90
15930;DHT22;8064;51.142;4.780;2022-07-23T00:05:46;17.50;99.90
15930;DHT22;8064;51.142;4.780;2022-07-23T00:08:12;17.50;99.90
15930;DHT22;8064;51.142;4.780;2022-07-23T00:10:38;17.50;99.90
15930;DHT22;8064;51.142;4.780;2022-07-23T00:13:04;17.50;99.90
15930;DHT22;8064;51.142;4.780;2022-07-23T00:15:29;17.50;99.90
15930;DHT22;8064;51.142;4.780;2022-07-23T00:17:55;17.40;99.90
15930;DHT22;8064;51.142;4.780;2022-07-23T00:20:21;17.40;99.90
15930;DHT22;8064;51.142;4.780;2022-07-23T00:22:48;17.30;99.90
15930;DHT22;8064;51.142;4.780;2022-07-23T00:25:14;17.30;99.90
15930;DHT22;8064;51.142;4.780;2022-07-23T00:27:40;17.30;99.90
15930;DHT22;8064;51.142;4.780;2022-07-23T00:30:06;17.30;99.90
15930;DHT22;8064;51.142;4.780;2022-07-23T00:32:32;17.30;99.90
15930;DHT22;8064;51.142;4.780;2022-07-23T00:35:09;17.30;99.90
15930;DHT22;8064;51.142;4.780;2022-07-23T00:37:35;17.30;99.90
15930;DHT22;8064;51.142;4.780;2022-07-23T00:40:01;17.30;99.90
15930;DHT22;8064;51.142;4.780;2022-07-23T00:42:26;17.20;99.90
15930;DHT22;8064;51.142;4.780;2022-07-23T00:44:52;17.20;99.90
15930;DHT22;8064;51.142;4.780;2022-07-23T00:47:18;17.20;99.90
15930;DHT22;8064;51.142;4.780;2022-07-23T00:49:43;17.20;99.90
15930;DHT22;8064;51.142;4.780;2022-07-23T00:52:09;17.20;99.90
15930;DHT22;8064;51.142;4.780;2022-07-23T00:54:35;17.10;99.90
15930;DHT22;8064;51.142;4.780;2022-07-23T00:57:01;17.10;99.90
15930;DHT22;8064;51.142;4.780;2022-07-23T00:59:27;17.10;99.90
15930;DHT22;8064;51.142;4.780;2022-07-23T01:01:52;17.00;99.90
15930;DHT22;8064;51.142;4.780;2022-07-23T01:04:18;17.00;99.90
15930;DHT22;8064;51.142;4.780;2022-07-23T01:06:44;16.90;99.90
15930;DHT22;8064;51.142;4.780;2022-07-23T01:09:10;16.90;99.90
15930;DHT22;8064;51.142;4.780;2022-07-23T01:11:37;16.90;99.90
15930;DHT22;8064;51.142;4.780;2022-07-23T01:14:21;16.80;99.90
15930;DHT22;8064;51.142;4.780;2022-07-23T01:16:48;16.80;99.90
15930;DHT22;8064;51.142;4.780;2022-07-23T01:19:15;16.70;99.90
15930;DHT22;8064;51.142;4.780;2022-07-23T01:21:43;16.70;99.90
15930;DHT22;8064;51.142;4.780;2022-07-23T01:24:10;16.60;99.90
15930;DHT22;8064;51.142;4.780;2022-07-23T01:26:37;16.60;99.90
15930;DHT22;8064;51.142;4.780;2022-07-23T01:29:03;16.60;99.90
15930;DHT22;8064;51.142;4.780;2022-07-23T01:31:30;16.60;99.90
15930;DHT22;8064;51.142;4.780;2022-07-23T01:33:56;16.50;99.90
15930;DHT22;8064;51.142;4.780;2022-07-23T01:36:22;16.50;99.90
15930;DHT22;8064;51.142;4.780;2022-07-23T01:38:48;16.50;99.90
15930;DHT22;8064;51.142;4.780;2022-07-23T01:41:14;16.50;99.90
15930;DHT22;8064;51.142;4.780;2022-07-23T01:43:40;16.50;99.90
15930;DHT22;8064;51.142;4.780;2022-07-23T01:46:06;16.50;99.90
15930;DHT22;8064;51.142;4.780;2022-07-23T01:48:31;16.40;99.90
15930;DHT22;8064;51.142;4.780;2022-07-23T01:50:57;16.40;99.90
15930;DHT22;8064;51.142;4.780;2022-07-23T01:53:23;16.40;99.90
15930;DHT22;8064;51.142;4.780;2022-07-23T01:55:50;16.30;99.90
15930;DHT22;8064;51.142;4.780;2022-07-23T01:58:15;16.30;99.90
15930;DHT22;8064;51.142;4.780;2022-07-23T02:00:41;16.30;99.90
15930;DHT22;8064;51.142;4.780;2022-07-23T02:03:07;16.30;99.90
15930;DHT22;8064;51.142;4.780;2022-07-23T02:05:33;16.20;99.90
15930;DHT22;8064;51.142;4.780;2022-07-23T02:07:59;16.20;99.90
15930;DHT22;8064;51.142;4.780;2022-07-23T02:10:25;16.10;99.90
15930;DHT22;8064;51.142;4.780;2022-07-23T02:12:51;16.10;99.90
15930;DHT22;8064;51.142;4.780;2022-07-23T02:15:17;16.10;99.90
15930;DHT22;8064;51.142;4.780;2022-07-23T02:17:42;16.00;99.90
15930;DHT22;8064;51.142;4.780;2022-07-23T02:20:10;16.00;99.90
15930;DHT22;8064;51.142;4.780;2022-07-23T02:22:36;16.00;99.90
15930;DHT22;8064;51.142;4.780;2022-07-23T02:25:04;16.00;99.90
15930;DHT22;8064;51.142;4.780;2022-07-23T02:27:30;16.00;99.90
15930;DHT22;8064;51.142;4.780;2022-07-23T02:29:56;16.00;99.90
15930;DHT22;8064;51.142;4.780;2022-07-23T02:32:23;16.00;99.90
15930;DHT22;8064;51.142;4.780;2022-07-23T02:34:49;16.00;99.90
15930;DHT22;8064;51.142;4.780;2022-07-23T02:37:15;16.00;99.90
15930;DHT22;8064;51.142;4.780;2022-07-23T02:39:40;16.00;99.90
15930;DHT22;8064;51.142;4.780;2022-07-23T02:42:06;16.00;99.90
15930;DHT22;8064;51.142;4.780;2022-07-23T02:44:32;15.90;99.90
15930;DHT22;8064;51.142;4.780;2022-07-23T02:46:58;15.90;99.90
15930;DHT22;8064;51.142;4.780;2022-07-23T02:49:24;15.90;99.90
15930;DHT22;8064;51.142;4.780;2022-07-23T02:51:49;15.90;99.90
15930;DHT22;8064;51.142;4.780;2022-07-23T02:54:15;15.90;99.90
15930;DHT22;8064;51.142;4.780;2022-07-23T02:56:41;15.90;99.90
15930;DHT22;8064;51.142;4.780;2022-07-23T02:59:07;15.90;99.90
15930;DHT22;8064;51.142;4.780;2022-07-23T03:01:34;15.80;99.90
15930;DHT22;8064;51.142;4.780;2022-07-23T03:04:01;15.90;99.90
15930;DHT22;8064;51.142;4.780;2022-07-23T03:06:26;15.80;99.90
15930;DHT22;8064;51.142;4.780;2022-07-23T03:08:52;15.80;99.90
15930;DHT22;8064;51.142;4.780;2022-07-23T03:11:18;15.80;99.90
15930;DHT22;8064;51.142;4.780;2022-07-23T03:13:44;15.70;99.90
15930;DHT22;8064;51.142;4.780;2022-07-23T03:16:09;15.70;99.90
15930;DHT22;8064;51.142;4.780;2022-07-23T03:18:35;15.70;99.90
15930;DHT22;8064;51.142;4.780;2022-07-23T03:21:01;15.70;99.90
15930;DHT22;8064;51.142;4.780;2022-07-23T03:23:27;15.70;99.90
15930;DHT22;8064;51.142;4.780;2022-07-23T03:25:53;15.70;99.90
15930;DHT22;8064;51.142;4.780;2022-07-23T03:28:18;15.60;99.90
15930;DHT22;8064;51.142;4.780;2022-07-23T03:30:46;15.60;99.90
15930;DHT22;8064;51.142;4.780;2022-07-23T03:33:13;15.50;99.90
15930;DHT22;8064;51.142;4.780;2022-07-23T03:35:39;15.50;99.90
15930;DHT22;8064;51.142;4.780;2022-07-23T03:38:05;15.50;99.90
15930;DHT22;8064;51.142;4.780;2022-07-23T03:40:31;15.40;99.90
15930;DHT22;8064;51.142;4.780;2022-07-23T03:42:57;15.40;99.90
15930;DHT22;8064;51.142;4.780;2022-07-23T03:45:23;15.40;99.90
15930;DHT22;8064;51.142;4.780;2022-07-23T03:47:48;15.30;99.90
15930;DHT22;8064;51.142;4.780;2022-07-23T03:50:14;15.30;99.90
15930;DHT22;8064;51.142;4.780;2022-07-23T03:52:40;15.30;99.90
15930;DHT22;8064;51.142;4.780;2022-07-23T03:55:07;15.30;99.90
15930;DHT22;8064;51.142;4.780;2022-07-23T03:57:32;15.30;99.90
15930;DHT22;8064;51.142;4.780;2022-07-23T03:59:58;15.20;99.90
15930;DHT22;8064;51.142;4.780;2022-07-23T04:02:24;15.20;99.90
15930;DHT22;8064;51.142;4.780;2022-07-23T04:04:50;15.20;99.90
15930;DHT22;8064;51.142;4.780;2022-07-23T04:07:16;15.20;99.90
15930;DHT22;8064;51.142;4.780;2022-07-23T04:09:43;15.20;99.90
15930;DHT22;8064;51.142;4.780;2022-07-23T04:12:09;15.20;99.90
15930;DHT22;8064;51.142;4.780;2022-07-23T04:14:36;15.20;99.90
15930;DHT22;8064;51.142;4.780;2022-07-23T04:17:02;15.20;99.90
15930;DHT22;8064;51.142;4.780;2022-07-23T04:19:28;15.30;99.90
15930;DHT22;8064;51.142;4.780;2022-07-23T04:21:56;15.30;99.90
15930;DHT22;8064;51.142;4.780;2022-07-23T04:24:21;15.30;99.90
15930;DHT22;8064;51.142;4.780;2022-07-23T04:26:47;15.30;99.90
15930;DHT22;8064;51.142;4.780;2022-07-23T04:29:13;15.30;99.90
15930;DHT22;8064;51.142;4.780;2022-07-23T04:31:39;15.30;99.90
15930;DHT22;8064;51.142;4.780;2022-07-23T04:34:05;15.20;99.90
15930;DHT22;8064;51.142;4.780;2022-07-23T04:36:30;15.20;99.90
15930;DHT22;8064;51.142;4.780;2022-07-23T04:38:56;15.30;99.90
15930;DHT22;8064;51.142;4.780;2022-07-23T04:41:22;15.30;99.90
15930;DHT22;8064;51.142;4.780;2022-07-23T04:43:48;15.30;99.90
15930;DHT22;8064;51.142;4.780;2022-07-23T04:46:13;15.30;99.90
15930;DHT22;8064;51.142;4.780;2022-07-23T04:48:39;15.40;99.90
15930;DHT22;8064;51.142;4.780;2022-07-23T04:51:05;15.50;99.90
15930;DHT22;8064;51.142;4.780;2022-07-23T04:53:31;15.50;99.90
15930;DHT22;8064;51.142;4.780;2022-07-23T04:55:57;15.60;99.90
15930;DHT22;8064;51.142;4.780;2022-07-23T04:58:23;15.70;99.90
15930;DHT22;8064;51.142;4.780;2022-07-23T05:00:48;15.70;99.90
15930;DHT22;8064;51.142;4.780;2022-07-23T05:03:14;15.80;99.90
15930;DHT22;8064;51.142;4.780;2022-07-23T05:05:40;15.90;99.90
15930;DHT22;8064;51.142;4.780;2022-07-23T05:08:06;15.90;99.90
15930;DHT22;8064;51.142;4.780;2022-07-23T05:10:31;16.00;99.90
15930;DHT22;8064;51.142;4.780;2022-07-23T05:12:57;16.10;99.90
15930;DHT22;8064;51.142;4.780;2022-07-23T05:15:23;16.20;99.90
15930;DHT22;8064;51.142;4.780;2022-07-23T05:17:49;16.30;99.90
15930;DHT22;8064;51.142;4.780;2022-07-23T05:20:15;16.30;99.90
15930;DHT22;8064;51.142;4.780;2022-07-23T05:22:41;16.40;99.90
15930;DHT22;8064;51.142;4.780;2022-07-23T05:25:07;16.50;99.90
15930;DHT22;8064;51.142;4.780;2022-07-23T05:27:33;16.50;99.90
15930;DHT22;8064;51.142;4.780;2022-07-23T05:29:59;16.60;99.90
15930;DHT22;8064;51.142;4.780;2022-07-23T05:32:25;16.70;99.90
15930;DHT22;8064;51.142;4.780;2022-07-23T05:34:50;16.70;99.90
15930;DHT22;8064;51.142;4.780;2022-07-23T05:37:16;16.80;99.90
15930;DHT22;8064;51.142;4.780;2022-07-23T05:39:42;16.90;99.90
15930;DHT22;8064;51.142;4.780;2022-07-23T05:42:08;17.00;99.90
15930;DHT22;8064;51.142;4.780;2022-07-23T05:44:34;17.10;99.90
15930;DHT22;8064;51.142;4.780;2022-07-23T05:47:00;17.20;99.90
15930;DHT22;8064;51.142;4.780;2022-07-23T05:49:26;17.30;99.90
15930;DHT22;8064;51.142;4.780;2022-07-23T05:51:51;17.40;99.90
15930;DHT22;8064;51.142;4.780;2022-07-23T05:54:17;17.50;99.90
15930;DHT22;8064;51.142;4.780;2022-07-23T05:56:43;17.60;99.90
15930;DHT22;8064;51.142;4.780;2022-07-23T05:59:09;17.60;99.90
15930;DHT22;8064;51.142;4.780;2022-07-23T06:01:34;17.70;99.90
15930;DHT22;8064;51.142;4.780;2022-07-23T06:04:00;17.80;99.90
15930;DHT22;8064;51.142;4.780;2022-07-23T06:06:26;18.00;99.90
15930;DHT22;8064;51.142;4.780;2022-07-23T06:08:52;18.10;99.90
15930;DHT22;8064;51.142;4.780;2022-07-23T06:11:17;18.20;99.90
15930;DHT22;8064;51.142;4.780;2022-07-23T06:13:43;18.30;99.90
15930;DHT22;8064;51.142;4.780;2022-07-23T06:16:09;18.50;99.90
15930;DHT22;8064;51.142;4.780;2022-07-23T06:18:34;18.60;99.90
15930;DHT22;8064;51.142;4.780;2022-07-23T06:21:00;18.70;99.90
15930;DHT22;8064;51.142;4.780;2022-07-23T06:23:26;18.90;99.90
15930;DHT22;8064;51.142;4.780;2022-07-23T06:25:52;19.00;99.90
15930;DHT22;8064;51.142;4.780;2022-07-23T06:28:17;19.10;99.90
15930;DHT22;8064;51.142;4.780;2022-07-23T06:30:43;19.30;99.90
15930;DHT22;8064;51.142;4.780;2022-07-23T06:33:09;19.40;99.90
15930;DHT22;8064;51.142;4.780;2022-07-23T06:35:36;19.60;99.90
15930;DHT22;8064;51.142;4.780;2022-07-23T06:38:02;19.70;99.90
15930;DHT22;8064;51.142;4.780;2022-07-23T06:40:28;19.90;99.90
15930;DHT22;8064;51.142;4.780;2022-07-23T06:42:54;20.00;99.90
15930;DHT22;8064;51.142;4.780;2022-07-23T06:45:20;20.20;99.90
15930;DHT22;8064;51.142;4.780;2022-07-23T06:47:46;20.30;99.80
15930;DHT22;8064;51.142;4.780;2022-07-23T06:50:12;20.50;99.70
15930;DHT22;8064;51.142;4.780;2022-07-23T06:52:38;20.50;99.50
15930;DHT22;8064;51.142;4.780;2022-07-23T06:55:04;20.70;99.40
15930;DHT22;8064;51.142;4.780;2022-07-23T06:57:30;20.80;99.30
15930;DHT22;8064;51.142;4.780;2022-07-23T06:59:55;20.90;99.20
15930;DHT22;8064;51.142;4.780;2022-07-23T07:02:21;21.00;98.90
15930;DHT22;8064;51.142;4.780;2022-07-23T07:04:47;21.00;98.60
15930;DHT22;8064;51.142;4.780;2022-07-23T07:07:13;20.90;98.40
15930;DHT22;8064;51.142;4.780;2022-07-23T07:09:38;21.00;98.40
15930;DHT22;8064;51.142;4.780;2022-07-23T07:12:05;21.10;98.30
15930;DHT22;8064;51.142;4.780;2022-07-23T07:14:30;21.20;98.10
15930;DHT22;8064;51.142;4.780;2022-07-23T07:16:56;21.30;97.80
15930;DHT22;8064;51.142;4.780;2022-07-23T07:19:22;21.40;97.70
15930;DHT22;8064;51.142;4.780;2022-07-23T07:21:48;21.50;97.60
15930;DHT22;8064;51.142;4.780;2022-07-23T07:24:14;21.60;97.50
15930;DHT22;8064;51.142;4.780;2022-07-23T07:26:39;21.70;97.40
15930;DHT22;8064;51.142;4.780;2022-07-23T07:29:06;21.80;97.10
15930;DHT22;8064;51.142;4.780;2022-07-23T07:31:32;21.90;96.90
15930;DHT22;8064;51.142;4.780;2022-07-23T07:33:58;22.00;96.70
15930;DHT22;8064;51.142;4.780;2022-07-23T07:36:24;22.10;96.60
15930;DHT22;8064;51.142;4.780;2022-07-23T07:38:50;22.30;96.40
15930;DHT22;8064;51.142;4.780;2022-07-23T07:41:16;22.30;96.10
15930;DHT22;8064;51.142;4.780;2022-07-23T07:43:42;22.40;96.00
15930;DHT22;8064;51.142;4.780;2022-07-23T07:46:08;22.50;95.90
15930;DHT22;8064;51.142;4.780;2022-07-23T07:48:36;22.60;95.70
15930;DHT22;8064;51.142;4.780;2022-07-23T07:51:04;22.80;95.60
15930;DHT22;8064;51.142;4.780;2022-07-23T07:53:30;22.90;95.50
15930;DHT22;8064;51.142;4.780;2022-07-23T07:55:55;23.10;95.30
15930;DHT22;8064;51.142;4.780;2022-07-23T07:58:21;23.30;95.00
15930;DHT22;8064;51.142;4.780;2022-07-23T08:00:47;23.40;94.60
15930;DHT22;8064;51.142;4.780;2022-07-23T08:03:13;23.50;94.40
15930;DHT22;8064;51.142;4.780;2022-07-23T08:05:39;23.60;94.10
15930;DHT22;8064;51.142;4.780;2022-07-23T08:08:04;23.70;94.00
15930;DHT22;8064;51.142;4.780;2022-07-23T08:10:30;23.80;94.10
15930;DHT22;8064;51.142;4.780;2022-07-23T08:12:58;24.00;94.00
15930;DHT22;8064;51.142;4.780;2022-07-23T08:15:26;24.20;93.90
15930;DHT22;8064;51.142;4.780;2022-07-23T08:17:52;24.30;93.80
15930;DHT22;8064;51.142;4.780;2022-07-23T08:20:20;24.40;93.70
15930;DHT22;8064;51.142;4.780;2022-07-23T08:23:05;24.50;93.40
15930;DHT22;8064;51.142;4.780;2022-07-23T08:25:34;24.40;92.90
15930;DHT22;8064;51.142;4.780;2022-07-23T08:28:02;24.40;92.90
15930;DHT22;8064;51.142;4.780;2022-07-23T08:30:29;24.30;93.00
15930;DHT22;8064;51.142;4.780;2022-07-23T08:32:59;24.30;93.00
15930;DHT22;8064;51.142;4.780;2022-07-23T08:35:29;24.30;92.90
15930;DHT22;8064;51.142;4.780;2022-07-23T08:37:56;24.30;92.80
15930;DHT22;8064;51.142;4.780;2022-07-23T08:40:25;24.40;92.80
15930;DHT22;8064;51.142;4.780;2022-07-23T08:42:51;24.50;92.50
15930;DHT22;8064;51.142;4.780;2022-07-23T08:45:20;24.70;92.40
15930;DHT22;8064;51.142;4.780;2022-07-23T08:47:50;24.80;92.10
15930;DHT22;8064;51.142;4.780;2022-07-23T08:50:16;24.90;92.00
15930;DHT22;8064;51.142;4.780;2022-07-23T08:52:42;25.10;91.90
15930;DHT22;8064;51.142;4.780;2022-07-23T08:55:10;25.20;91.40
15930;DHT22;8064;51.142;4.780;2022-07-23T08:57:35;25.40;90.90
15930;DHT22;8064;51.142;4.780;2022-07-23T09:00:03;25.40;90.40
15930;DHT22;8064;51.142;4.780;2022-07-23T09:02:29;25.50;90.20
15930;DHT22;8064;51.142;4.780;2022-07-23T09:04:55;25.50;89.90
15930;DHT22;8064;51.142;4.780;2022-07-23T09:07:20;25.60;89.00
15930;DHT22;8064;51.142;4.780;2022-07-23T09:09:46;25.70;88.50
15930;DHT22;8064;51.142;4.780;2022-07-23T09:12:12;25.80;88.60
15930;DHT22;8064;51.142;4.780;2022-07-23T09:14:47;25.90;88.10
15930;DHT22;8064;51.142;4.780;2022-07-23T09:17:16;26.10;86.70
15930;DHT22;8064;51.142;4.780;2022-07-23T09:19:43;26.20;86.10
15930;DHT22;8064;51.142;4.780;2022-07-23T09:22:24;26.40;85.40
15930;DHT22;8064;51.142;4.780;2022-07-23T09:30:13;26.70;82.50
15930;DHT22;8064;51.142;4.780;2022-07-23T09:32:39;26.80;82.10
15930;DHT22;8064;51.142;4.780;2022-07-23T09:35:05;26.90;81.60
15930;DHT22;8064;51.142;4.780;2022-07-23T09:37:31;26.90;81.10
15930;DHT22;8064;51.142;4.780;2022-07-23T09:40:16;27.00;80.30
15930;DHT22;8064;51.142;4.780;2022-07-23T09:42:55;27.10;78.80
15930;DHT22;8064;51.142;4.780;2022-07-23T09:45:21;27.10;78.80
15930;DHT22;8064;51.142;4.780;2022-07-23T09:47:46;27.20;79.00
15930;DHT22;8064;51.142;4.780;2022-07-23T09:50:12;27.30;78.40
15930;DHT22;8064;51.142;4.780;2022-07-23T09:52:55;27.30;78.10
15930;DHT22;8064;51.142;4.780;2022-07-23T09:55:31;27.40;77.30
15930;DHT22;8064;51.142;4.780;2022-07-23T09:58:17;27.50;77.10
15930;DHT22;8064;51.142;4.780;2022-07-23T10:00:47;27.70;77.70
15930;DHT22;8064;51.142;4.780;2022-07-23T10:03:15;27.80;77.50
15930;DHT22;8064;51.142;4.780;2022-07-23T10:05:43;27.90;76.80
15930;DHT22;8064;51.142;4.780;2022-07-23T10:08:12;27.90;76.80
15930;DHT22;8064;51.142;4.780;2022-07-23T10:10:39;28.00;76.00
15930;DHT22;8064;51.142;4.780;2022-07-23T10:13:06;28.10;75.70
15930;DHT22;8064;51.142;4.780;2022-07-23T10:15:51;28.10;75.00
15930;DHT22;8064;51.142;4.780;2022-07-23T10:18:17;28.20;74.60
15930;DHT22;8064;51.142;4.780;2022-07-23T10:20:43;28.20;74.40
15930;DHT22;8064;51.142;4.780;2022-07-23T10:23:24;28.30;74.20
15930;DHT22;8064;51.142;4.780;2022-07-23T10:26:12;28.40;72.90
15930;DHT22;8064;51.142;4.780;2022-07-23T10:37:32;29.00;70.90
15930;DHT22;8064;51.142;4.780;2022-07-23T10:40:12;29.10;70.80
15930;DHT22;8064;51.142;4.780;2022-07-23T10:42:39;29.30;69.90
15930;DHT22;8064;51.142;4.780;2022-07-23T10:48:13;29.50;69.90
15930;DHT22;8064;51.142;4.780;2022-07-23T10:50:40;29.50;69.20
15930;DHT22;8064;51.142;4.780;2022-07-23T10:58:00;29.50;67.40
15930;DHT22;8064;51.142;4.780;2022-07-23T11:00:28;29.50;67.50
15930;DHT22;8064;51.142;4.780;2022-07-23T11:02:57;29.50;68.30
15930;DHT22;8064;51.142;4.780;2022-07-23T11:05:38;29.50;68.50
15930;DHT22;8064;51.142;4.780;2022-07-23T11:13:47;29.50;65.30
15930;DHT22;8064;51.142;4.780;2022-07-23T11:16:46;29.50;65.30
15930;DHT22;8064;51.142;4.780;2022-07-23T11:19:13;29.50;64.60
15930;DHT22;8064;51.142;4.780;2022-07-23T11:21:41;29.40;64.60
15930;DHT22;8064;51.142;4.780;2022-07-23T11:24:09;29.40;64.30
15930;DHT22;8064;51.142;4.780;2022-07-23T11:26:55;29.30;63.50
15930;DHT22;8064;51.142;4.780;2022-07-23T11:29:41;29.20;62.50
15930;DHT22;8064;51.142;4.780;2022-07-23T11:32:22;29.10;63.00
15930;DHT22;8064;51.142;4.780;2022-07-23T11:34:50;29.10;63.70
15930;DHT22;8064;51.142;4.780;2022-07-23T11:37:39;29.10;64.10
15930;DHT22;8064;51.142;4.780;2022-07-23T11:40:10;29.10;62.90
15930;DHT22;8064;51.142;4.780;2022-07-23T11:42:37;29.00;63.40
15930;DHT22;8064;51.142;4.780;2022-07-23T11:45:06;29.00;62.70
15930;DHT22;8064;51.142;4.780;2022-07-23T11:47:33;28.90;62.50
15930;DHT22;8064;51.142;4.780;2022-07-23T11:50:00;28.70;62.50
15930;DHT22;8064;51.142;4.780;2022-07-23T11:52:27;28.60;63.10
15930;DHT22;8064;51.142;4.780;2022-07-23T11:54:56;28.50;63.30
15930;DHT22;8064;51.142;4.780;2022-07-23T11:57:40;28.40;63.70
15930;DHT22;8064;51.142;4.780;2022-07-23T12:02:54;28.20;64.30
15930;DHT22;8064;51.142;4.780;2022-07-23T12:05:23;28.10;64.30
15930;DHT22;8064;51.142;4.780;2022-07-23T12:07:50;28.00;63.80
15930;DHT22;8064;51.142;4.780;2022-07-23T12:10:22;27.90;64.20
15930;DHT22;8064;51.142;4.780;2022-07-23T12:12:50;27.80;64.70
15930;DHT22;8064;51.142;4.780;2022-07-23T12:15:19;27.70;64.90
15930;DHT22;8064;51.142;4.780;2022-07-23T12:17:46;27.60;65.20
15930;DHT22;8064;51.142;4.780;2022-07-23T12:20:14;27.50;65.20
15930;DHT22;8064;51.142;4.780;2022-07-23T12:22:43;27.50;65.30
15930;DHT22;8064;51.142;4.780;2022-07-23T12:25:12;27.40;65.60
15930;DHT22;8064;51.142;4.780;2022-07-23T12:27:38;27.40;66.00
15930;DHT22;8064;51.142;4.780;2022-07-23T12:30:23;27.40;66.50
15930;DHT22;8064;51.142;4.780;2022-07-23T12:32:52;27.40;66.60
15930;DHT22;8064;51.142;4.780;2022-07-23T12:35:18;27.30;67.50
15930;DHT22;8064;51.142;4.780;2022-07-23T12:37:46;27.30;68.50
15930;DHT22;8064;51.142;4.780;2022-07-23T12:40:33;27.30;69.10
15930;DHT22;8064;51.142;4.780;2022-07-23T12:43:05;27.30;67.60
15930;DHT22;8064;51.142;4.780;2022-07-23T12:45:48;27.20;66.80
15930;DHT22;8064;51.142;4.780;2022-07-23T12:48:35;27.20;67.50
15930;DHT22;8064;51.142;4.780;2022-07-23T12:51:06;27.10;66.90
15930;DHT22;8064;51.142;4.780;2022-07-23T12:53:38;27.10;68.30
15930;DHT22;8064;51.142;4.780;2022-07-23T12:56:09;27.10;69.70
15930;DHT22;8064;51.142;4.780;2022-07-23T13:04:02;27.00;68.90
15930;DHT22;8064;51.142;4.780;2022-07-23T13:06:30;27.00;68.60
15930;DHT22;8064;51.142;4.780;2022-07-23T13:08:56;27.00;68.30
15930;DHT22;8064;51.142;4.780;2022-07-23T13:11:22;27.00;68.70
15930;DHT22;8064;51.142;4.780;2022-07-23T13:13:49;27.10;68.70
15930;DHT22;8064;51.142;4.780;2022-07-23T13:16:15;27.00;68.10
15930;DHT22;8064;51.142;4.780;2022-07-23T13:18:41;27.00;68.60
15930;DHT22;8064;51.142;4.780;2022-07-23T13:21:07;27.00;68.90
15930;DHT22;8064;51.142;4.780;2022-07-23T13:23:33;27.00;69.20
15930;DHT22;8064;51.142;4.780;2022-07-23T13:25:59;27.00;69.00
15930;DHT22;8064;51.142;4.780;2022-07-23T13:28:25;27.00;68.80
15930;DHT22;8064;51.142;4.780;2022-07-23T13:30:51;26.90;68.10
15930;DHT22;8064;51.142;4.780;2022-07-23T13:33:21;26.90;67.70
15930;DHT22;8064;51.142;4.780;2022-07-23T13:35:47;26.90;68.30
15930;DHT22;8064;51.142;4.780;2022-07-23T13:38:13;26.90;69.20
15930;DHT22;8064;51.142;4.780;2022-07-23T13:40:41;26.90;70.00
15930;DHT22;8064;51.142;4.780;2022-07-23T13:43:10;26.90;69.80
15930;DHT22;8064;51.142;4.780;2022-07-23T13:45:37;26.90;70.20
15930;DHT22;8064;51.142;4.780;2022-07-23T13:48:04;26.90;70.30
15930;DHT22;8064;51.142;4.780;2022-07-23T13:50:30;26.90;70.50
15930;DHT22;8064;51.142;4.780;2022-07-23T13:52:56;26.90;70.90
15930;DHT22;8064;51.142;4.780;2022-07-23T13:55:22;27.00;70.90
15930;DHT22;8064;51.142;4.780;2022-07-23T13:57:48;27.00;71.20
15930;DHT22;8064;51.142;4.780;2022-07-23T14:00:14;27.00;71.20
15930;DHT22;8064;51.142;4.780;2022-07-23T14:02:40;27.00;70.90
15930;DHT22;8064;51.142;4.780;2022-07-23T14:05:08;27.10;71.50
15930;DHT22;8064;51.142;4.780;2022-07-23T14:07:35;27.10;71.80
15930;DHT22;8064;51.142;4.780;2022-07-23T14:10:03;27.20;73.20
15930;DHT22;8064;51.142;4.780;2022-07-23T14:12:30;27.10;71.00
15930;DHT22;8064;51.142;4.780;2022-07-23T14:14:56;27.10;69.80
15930;DHT22;8064;51.142;4.780;2022-07-23T14:17:22;27.10;68.90
15930;DHT22;8064;51.142;4.780;2022-07-23T14:19:48;27.20;68.70
15930;DHT22;8064;51.142;4.780;2022-07-23T14:22:14;27.20;68.40
15930;DHT22;8064;51.142;4.780;2022-07-23T14:24:39;27.20;68.60
15930;DHT22;8064;51.142;4.780;2022-07-23T14:27:05;27.20;68.70
15930;DHT22;8064;51.142;4.780;2022-07-23T14:29:31;27.20;68.30
15930;DHT22;8064;51.142;4.780;2022-07-23T14:31:58;27.20;68.50
15930;DHT22;8064;51.142;4.780;2022-07-23T14:34:24;27.20;69.00
15930;DHT22;8064;51.142;4.780;2022-07-23T14:36:50;27.20;69.30
15930;DHT22;8064;51.142;4.780;2022-07-23T14:39:16;27.20;68.80
15930;DHT22;8064;51.142;4.780;2022-07-23T14:41:42;27.20;68.90
15930;DHT22;8064;51.142;4.780;2022-07-23T14:44:08;27.20;69.60
15930;DHT22;8064;51.142;4.780;2022-07-23T14:46:34;27.20;69.10
15930;DHT22;8064;51.142;4.780;2022-07-23T14:48:59;27.20;68.80
15930;DHT22;8064;51.142;4.780;2022-07-23T14:51:25;27.20;69.40
15930;DHT22;8064;51.142;4.780;2022-07-23T14:53:51;27.20;69.00
15930;DHT22;8064;51.142;4.780;2022-07-23T14:56:17;27.30;69.30
15930;DHT22;8064;51.142;4.780;2022-07-23T14:58:44;27.30;69.60
15930;DHT22;8064;51.142;4.780;2022-07-23T15:01:09;27.30;70.60
15930;DHT22;8064;51.142;4.780;2022-07-23T15:03:35;27.30;70.70
15930;DHT22;8064;51.142;4.780;2022-07-23T15:06:01;27.30;70.20
15930;DHT22;8064;51.142;4.780;2022-07-23T15:08:27;27.30;69.20
15930;DHT22;8064;51.142;4.780;2022-07-23T15:10:52;27.30;69.50
15930;DHT22;8064;51.142;4.780;2022-07-23T15:13:18;27.40;68.40
15930;DHT22;8064;51.142;4.780;2022-07-23T15:15:44;27.30;68.10
15930;DHT22;8064;51.142;4.780;2022-07-23T15:18:11;27.30;67.60
15930;DHT22;8064;51.142;4.780;2022-07-23T15:20:36;27.30;67.40
15930;DHT22;8064;51.142;4.780;2022-07-23T15:23:04;27.20;67.40
15930;DHT22;8064;51.142;4.780;2022-07-23T15:25:30;27.20;67.10
15930;DHT22;8064;51.142;4.780;2022-07-23T15:27:57;27.30;66.80
15930;DHT22;8064;51.142;4.780;2022-07-23T15:30:25;27.20;67.40
15930;DHT22;8064;51.142;4.780;2022-07-23T15:32:51;27.30;68.60
15930;DHT22;8064;51.142;4.780;2022-07-23T15:35:17;27.20;69.30
15930;DHT22;8064;51.142;4.780;2022-07-23T15:37:43;27.30;70.60
15930;DHT22;8064;51.142;4.780;2022-07-23T15:40:10;27.30;71.80
15930;DHT22;8064;51.142;4.780;2022-07-23T15:42:36;27.30;71.20
15930;DHT22;8064;51.142;4.780;2022-07-23T15:45:02;27.30;70.00
15930;DHT22;8064;51.142;4.780;2022-07-23T15:47:28;27.30;69.20
15930;DHT22;8064;51.142;4.780;2022-07-23T15:49:53;27.30;69.00
15930;DHT22;8064;51.142;4.780;2022-07-23T15:52:19;27.20;68.60
15930;DHT22;8064;51.142;4.780;2022-07-23T15:54:45;27.20;68.40
15930;DHT22;8064;51.142;4.780;2022-07-23T15:57:10;27.20;68.40
15930;DHT22;8064;51.142;4.780;2022-07-23T15:59:37;27.20;68.40
15930;DHT22;8064;51.142;4.780;2022-07-23T16:02:03;27.20;67.90
15930;DHT22;8064;51.142;4.780;2022-07-23T16:04:29;27.10;68.30
15930;DHT22;8064;51.142;4.780;2022-07-23T16:06:56;27.10;69.20
15930;DHT22;8064;51.142;4.780;2022-07-23T16:09:22;27.10;69.80
15930;DHT22;8064;51.142;4.780;2022-07-23T16:11:48;27.10;70.70
15930;DHT22;8064;51.142;4.780;2022-07-23T16:14:14;27.10;71.20
15930;DHT22;8064;51.142;4.780;2022-07-23T16:16:40;27.00;71.00
15930;DHT22;8064;51.142;4.780;2022-07-23T16:19:06;27.00;70.30
15930;DHT22;8064;51.142;4.780;2022-07-23T16:21:32;27.10;69.60